createdAt,value
2019-03-11T00:01:47.244Z,58.69
2019-03-11T00:04:16.660Z,61.10
2019-03-11T00:06:45.735Z,57.66
2019-03-11T00:09:14.644Z,58.00
2019-03-11T00:11:43.261Z,59.39
2019-03-11T00:14:11.852Z,58.58
2019-03-11T00:16:40.488Z,60.24
2019-03-11T00:19:09.081Z,59.17
2019-03-11T00:21:37.701Z,58.16
2019-03-11T00:24:06.315Z,58.99
2019-03-11T00:26:34.937Z,58.81
2019-03-11T00:29:03.596Z,58.99
2019-03-11T00:31:32.182Z,58.70
2019-03-11T00:34:00.808Z,60.79
2019-03-11T00:36:29.417Z,59.88
2019-03-11T00:38:58.018Z,60.18
2019-03-11T00:41:26.622Z,59.66
2019-03-11T00:43:55.226Z,59.88
2019-03-11T00:46:23.805Z,61.19
2019-03-11T00:48:52.410Z,59.54
2019-03-11T00:51:21.151Z,58.85
2019-03-11T00:53:49.779Z,60.36
2019-03-11T00:56:18.363Z,61.94
2019-03-11T00:58:47.006Z,60.33
2019-03-11T01:01:15.594Z,59.24
2019-03-11T01:03:44.245Z,61.89
2019-03-11T01:06:12.906Z,61.81
2019-03-11T01:08:41.520Z,60.35
2019-03-11T01:11:10.173Z,61.19
2019-03-11T01:13:38.803Z,58.98
2019-03-11T01:16:07.472Z,58.86
2019-03-11T01:18:36.077Z,58.59
2019-03-11T01:21:04.733Z,57.12
2019-03-11T01:23:33.355Z,58.24
2019-03-11T01:26:01.942Z,58.45
2019-03-11T01:28:30.555Z,58.60
2019-03-11T01:30:59.181Z,59.72
2019-03-11T01:33:27.821Z,59.65
2019-03-11T01:35:56.417Z,60.00
2019-03-11T01:38:25.042Z,60.45
2019-03-11T01:40:53.678Z,59.17
2019-03-11T01:43:22.280Z,59.42
2019-03-11T01:45:51.017Z,58.56
2019-03-11T01:48:19.890Z,58.85
2019-03-11T01:50:48.722Z,58.98
2019-03-11T01:53:17.358Z,59.54
2019-03-11T01:55:45.950Z,58.44
2019-03-11T01:58:14.554Z,58.25
2019-03-11T02:00:43.149Z,57.59
2019-03-11T02:03:11.791Z,56.44
2019-03-11T02:05:40.382Z,59.33
2019-03-11T02:08:08.967Z,61.59
2019-03-11T02:10:37.662Z,57.28
2019-03-11T02:13:06.559Z,60.41
2019-03-11T02:15:35.425Z,59.23
2019-03-11T02:18:04.037Z,59.00
2019-03-11T02:20:32.644Z,59.58
2019-03-11T02:23:01.268Z,57.86
2019-03-11T02:25:29.843Z,55.26
2019-03-11T02:27:58.442Z,56.60
2019-03-11T02:30:27.070Z,55.77
2019-03-11T02:32:56.030Z,58.30
2019-03-11T02:35:28.730Z,59.44
2019-03-11T02:37:57.577Z,58.21
2019-03-11T02:40:26.345Z,58.72
2019-03-11T02:42:55.059Z,60.37
2019-03-11T02:45:23.658Z,57.38
2019-03-11T02:47:52.333Z,61.73
2019-03-11T02:50:21.048Z,61.06
2019-03-11T02:52:49.654Z,59.57
2019-03-11T02:55:18.280Z,57.79
2019-03-11T02:57:46.933Z,57.55
2019-03-11T03:00:16.721Z,59.00
2019-03-11T03:02:54.121Z,60.66
2019-03-11T03:05:25.906Z,59.25
2019-03-11T03:07:54.501Z,58.57
2019-03-11T03:10:23.309Z,57.46
2019-03-11T03:12:51.904Z,59.70
2019-03-11T03:15:20.490Z,56.71
2019-03-11T03:17:49.132Z,53.73
2019-03-11T03:20:18.123Z,56.14
2019-03-11T03:22:46.719Z,57.41
2019-03-11T03:25:15.514Z,58.19
2019-03-11T03:27:44.151Z,60.53
2019-03-11T03:30:14.694Z,57.59
2019-03-11T03:32:43.311Z,53.24
2019-03-11T03:35:11.905Z,53.84
2019-03-11T03:37:40.510Z,55.03
2019-03-11T03:40:09.473Z,55.46
2019-03-11T03:42:38.158Z,56.67
2019-03-11T03:45:39.558Z,54.96
2019-03-11T03:48:08.216Z,55.28
2019-03-11T03:50:40.323Z,53.99
2019-03-11T03:53:09.528Z,53.56
2019-03-11T03:55:38.175Z,56.74
2019-03-11T03:58:06.947Z,55.26
2019-03-11T04:00:35.581Z,56.54
2019-03-11T04:03:04.278Z,55.83
2019-03-11T04:05:32.850Z,56.00
2019-03-11T04:08:01.488Z,58.39
2019-03-11T04:10:32.560Z,55.85
2019-03-11T04:13:00.441Z,57.46
2019-03-11T04:15:29.101Z,54.16
2019-03-11T04:17:57.637Z,54.15
2019-03-11T04:20:26.417Z,53.21
2019-03-11T04:22:55.040Z,53.05
2019-03-11T04:25:23.822Z,53.26
2019-03-11T04:27:52.797Z,53.40
2019-03-11T04:30:22.582Z,55.95
2019-03-11T04:32:51.199Z,57.65
2019-03-11T04:35:19.770Z,56.79
2019-03-11T04:37:48.359Z,55.20
2019-03-11T04:40:17.246Z,54.83
2019-03-11T04:42:45.845Z,53.82
2019-03-11T04:45:14.653Z,54.04
2019-03-11T04:47:43.397Z,54.81
2019-03-11T04:50:12.966Z,53.93
2019-03-11T04:52:41.572Z,54.55
2019-03-11T04:55:11.056Z,56.99
2019-03-11T04:57:45.183Z,58.37
2019-03-11T05:00:16.279Z,55.04
2019-03-11T05:02:44.938Z,54.47
2019-03-11T05:05:13.985Z,53.53
2019-03-11T05:07:43.714Z,54.17
2019-03-11T05:10:12.391Z,53.33
2019-03-11T05:12:41.083Z,53.93
2019-03-11T05:15:10.450Z,54.48
2019-03-11T05:17:39.093Z,53.32
2019-03-11T05:20:08.300Z,52.70
2019-03-11T05:22:36.918Z,51.22
2019-03-11T05:25:05.992Z,53.65
2019-03-11T05:27:34.592Z,52.72
2019-03-11T05:30:03.259Z,51.11
2019-03-11T05:32:31.907Z,49.88
2019-03-11T05:35:00.500Z,49.55
2019-03-11T05:37:29.178Z,48.54
2019-03-11T05:39:57.842Z,49.01
2019-03-11T05:42:26.538Z,53.44
2019-03-11T05:44:55.173Z,50.80
2019-03-11T05:47:23.828Z,50.09
2019-03-11T05:49:52.402Z,53.74
2019-03-11T05:52:21.043Z,52.64
2019-03-11T05:54:49.680Z,51.78
2019-03-11T05:57:18.425Z,51.11
2019-03-11T05:59:47.163Z,52.25
2019-03-11T06:02:15.943Z,53.01
2019-03-11T06:04:44.543Z,52.83
2019-03-11T06:07:13.145Z,53.79
2019-03-11T06:09:42.762Z,55.97
2019-03-11T06:12:11.347Z,56.36
2019-03-11T06:14:39.988Z,55.03
2019-03-11T06:17:08.584Z,55.11
2019-03-11T06:19:37.489Z,55.45
2019-03-11T06:22:18.780Z,53.70
2019-03-11T06:24:48.453Z,52.83
2019-03-11T06:27:17.029Z,54.55
2019-03-11T06:29:46.319Z,55.51
2019-03-11T06:32:15.011Z,56.73
2019-03-11T06:34:43.619Z,58.92
2019-03-11T06:37:12.203Z,59.95
2019-03-11T06:39:40.812Z,60.44
2019-03-11T06:42:09.694Z,58.68
2019-03-11T06:44:38.715Z,61.23
2019-03-11T06:47:07.563Z,60.31
2019-03-11T06:49:36.244Z,58.32
2019-03-11T06:52:05.145Z,55.58
2019-03-11T06:54:34.100Z,56.38
2019-03-11T06:57:03.352Z,58.67
2019-03-11T06:59:31.937Z,54.71
2019-03-11T07:02:00.577Z,56.71
2019-03-11T07:04:29.677Z,56.05
2019-03-11T07:06:58.291Z,54.62
2019-03-11T07:09:27.034Z,52.73
2019-03-11T07:11:55.800Z,54.80
2019-03-11T07:14:24.563Z,53.74
2019-03-11T07:16:53.886Z,53.09
2019-03-11T07:19:22.485Z,52.56
2019-03-11T07:21:51.197Z,54.87
2019-03-11T07:24:19.812Z,56.48
2019-03-11T07:26:48.466Z,55.95
2019-03-11T07:29:17.644Z,56.36
2019-03-11T07:31:46.171Z,56.34
2019-03-11T07:34:14.840Z,57.36
2019-03-11T07:36:43.541Z,58.59
2019-03-11T07:39:12.172Z,58.49
2019-03-11T07:41:40.789Z,60.67
2019-03-11T07:46:29.846Z,58.69
2019-03-11T07:48:58.441Z,60.57
2019-03-11T07:51:27.027Z,58.24
2019-03-11T07:53:55.620Z,57.04
2019-03-11T07:56:24.524Z,57.42
2019-03-11T07:58:53.159Z,58.66
2019-03-11T08:01:22.112Z,59.49
2019-03-11T08:03:50.703Z,62.29
2019-03-11T08:06:19.621Z,58.63
2019-03-11T08:08:48.236Z,57.36
2019-03-11T08:11:16.945Z,58.15
2019-03-11T08:13:45.778Z,58.68
2019-03-11T08:16:14.856Z,59.64
2019-03-11T08:18:43.515Z,58.29
2019-03-11T08:21:12.111Z,54.30
2019-03-11T08:23:40.696Z,54.33
2019-03-11T08:26:09.298Z,55.32
2019-03-11T08:28:38.221Z,53.09
2019-03-11T08:31:06.887Z,55.78
2019-03-11T08:33:35.742Z,56.54
2019-03-11T08:36:04.839Z,51.76
2019-03-11T08:38:33.757Z,50.90
2019-03-11T08:41:02.280Z,52.89
2019-03-11T08:43:31.389Z,52.34
2019-03-11T08:46:00.486Z,52.29
2019-03-11T08:48:29.221Z,52.62
2019-03-11T08:50:57.828Z,50.45
2019-03-11T08:53:26.451Z,52.77
2019-03-11T08:55:55.079Z,53.33
2019-03-11T08:58:24.012Z,56.99
2019-03-11T09:00:52.631Z,56.81
2019-03-11T09:03:21.227Z,53.91
2019-03-11T09:05:49.826Z,55.21
2019-03-11T09:08:18.686Z,55.60
2019-03-11T09:10:47.288Z,57.99
2019-03-11T09:13:15.895Z,56.11
2019-03-11T09:15:44.483Z,56.19
2019-03-11T09:18:13.227Z,58.31
2019-03-11T09:20:41.828Z,54.71
2019-03-11T09:23:10.498Z,55.67
2019-03-11T09:25:39.258Z,54.03
2019-03-11T09:28:08.148Z,54.64
2019-03-11T09:30:36.851Z,53.97
2019-03-11T09:33:08.249Z,55.79
2019-03-11T09:35:36.230Z,53.90
2019-03-11T09:38:05.123Z,53.91
2019-03-11T09:40:33.738Z,52.92
2019-03-11T09:43:02.358Z,54.90
2019-03-11T09:45:30.959Z,55.80
2019-03-11T09:47:59.569Z,59.50
2019-03-11T09:50:28.166Z,57.30
2019-03-11T09:52:56.808Z,54.18
2019-03-11T09:55:25.408Z,55.54
2019-03-11T09:57:53.983Z,55.83
2019-03-11T10:00:22.618Z,56.90
2019-03-11T10:02:53.197Z,55.65
2019-03-11T10:05:21.908Z,55.94
2019-03-11T10:07:50.759Z,54.54
2019-03-11T10:10:19.411Z,55.84
2019-03-11T10:12:48.068Z,51.34
2019-03-11T10:15:17.714Z,55.37
2019-03-11T10:17:46.440Z,56.83
2019-03-11T10:20:15.246Z,59.51
2019-03-11T10:22:43.850Z,58.76
2019-03-11T10:25:12.573Z,56.72
2019-03-11T10:27:41.142Z,56.04
2019-03-11T10:30:11.660Z,57.38
2019-03-11T10:32:41.057Z,59.75
2019-03-11T10:35:30.086Z,62.05
2019-03-11T10:37:41.585Z,57.17
2019-03-11T10:40:12.835Z,59.34
2019-03-11T10:42:41.770Z,59.45
2019-03-11T10:45:10.939Z,58.05
2019-03-11T10:47:39.556Z,59.71
2019-03-11T10:50:09.003Z,60.03
2019-03-11T10:52:37.606Z,58.61
2019-03-11T10:55:06.932Z,59.09
2019-03-11T10:57:35.573Z,57.48
2019-03-11T11:00:05.474Z,55.20
2019-03-11T11:02:34.098Z,54.34
2019-03-11T11:05:02.703Z,55.62
2019-03-11T11:07:31.337Z,58.56
2019-03-11T11:10:00.063Z,58.15
2019-03-11T11:12:28.705Z,61.56
2019-03-11T11:14:57.457Z,56.65
2019-03-11T11:17:26.388Z,58.62
2019-03-11T11:20:03.105Z,56.89
2019-03-11T11:22:25.574Z,58.97
2019-03-11T11:24:54.705Z,58.53
2019-03-11T11:27:23.686Z,58.09
2019-03-11T11:29:52.348Z,56.99
2019-03-11T11:32:21.193Z,54.38
2019-03-11T11:34:50.178Z,56.41
2019-03-11T11:37:18.857Z,55.63
2019-03-11T11:39:47.500Z,56.65
2019-03-11T11:42:16.093Z,57.39
2019-03-11T11:44:44.683Z,54.58
2019-03-11T11:47:13.287Z,56.69
2019-03-11T11:49:41.910Z,55.35
2019-03-11T11:52:10.531Z,54.07
2019-03-11T11:54:39.211Z,55.37
2019-03-11T11:57:07.898Z,54.38
2019-03-11T11:59:36.613Z,53.72
2019-03-11T12:02:05.250Z,53.08
2019-03-11T12:04:34.122Z,53.54
2019-03-11T12:07:02.829Z,54.14
2019-03-11T12:09:31.445Z,54.30
2019-03-11T12:12:00.096Z,53.32
2019-03-11T12:14:28.839Z,52.11
2019-03-11T12:16:57.731Z,52.91
2019-03-11T12:19:26.588Z,51.99
2019-03-11T12:21:55.245Z,52.17
2019-03-11T12:24:23.888Z,53.54
2019-03-11T12:26:52.576Z,54.06
2019-03-11T12:29:21.168Z,53.24
2019-03-11T12:31:50.158Z,53.38
2019-03-11T12:34:18.894Z,50.64
2019-03-11T12:36:47.838Z,51.55
2019-03-11T12:39:16.683Z,52.24
2019-03-11T12:41:45.715Z,53.72
2019-03-11T12:44:14.355Z,54.91
2019-03-11T12:46:43.026Z,52.08
2019-03-11T12:49:11.626Z,54.69
2019-03-11T12:51:49.230Z,51.27
2019-03-11T12:54:10.795Z,53.78
2019-03-11T12:56:39.404Z,56.29
2019-03-11T12:59:08.025Z,56.37
2019-03-11T13:01:36.676Z,55.50
2019-03-11T13:04:05.437Z,55.63
2019-03-11T13:06:34.274Z,55.51
2019-03-11T13:09:02.864Z,58.72
2019-03-11T13:11:31.489Z,54.92
2019-03-11T13:14:00.346Z,55.60
2019-03-11T13:16:28.917Z,53.74
2019-03-11T13:18:59.252Z,50.13
2019-03-11T13:21:30.077Z,49.41
2019-03-11T13:23:58.910Z,53.29
2019-03-11T13:26:27.593Z,53.75
2019-03-11T13:28:56.219Z,51.51
2019-03-11T13:31:24.828Z,48.70
2019-03-11T13:33:53.435Z,52.25
2019-03-11T13:36:22.514Z,52.24
2019-03-11T13:38:51.189Z,53.34
2019-03-11T13:41:19.877Z,53.04
2019-03-11T13:43:48.810Z,51.95
2019-03-11T13:46:17.393Z,53.64
2019-03-11T13:48:46.119Z,52.70
2019-03-11T13:51:14.887Z,55.07
2019-03-11T13:53:43.603Z,57.56
2019-03-11T13:56:12.449Z,60.84
2019-03-11T13:58:41.149Z,60.02
2019-03-11T14:01:09.827Z,55.61
2019-03-11T14:03:39.081Z,55.93
2019-03-11T14:06:07.773Z,55.55
2019-03-11T14:08:36.333Z,58.67
2019-03-11T14:11:05.203Z,57.06
2019-03-11T14:13:33.807Z,56.60
2019-03-11T14:16:02.476Z,59.63
2019-03-11T14:18:31.369Z,57.06
2019-03-11T14:20:59.979Z,54.53
2019-03-11T14:23:28.634Z,53.13
2019-03-11T14:25:57.262Z,52.32
2019-03-11T14:28:25.940Z,51.48
2019-03-11T14:30:54.593Z,57.10
2019-03-11T14:33:23.299Z,55.59
2019-03-11T14:35:52.392Z,53.79
2019-03-11T14:38:21.060Z,52.23
2019-03-11T14:40:49.700Z,54.18
2019-03-11T14:43:18.558Z,56.20
2019-03-11T14:45:47.368Z,57.46
2019-03-11T14:48:16.226Z,58.03
2019-03-11T14:50:46.198Z,59.07
2019-03-11T14:53:15.548Z,59.88
2019-03-11T14:55:48.875Z,61.71
2019-03-11T14:58:29.289Z,57.96
2019-03-11T15:00:54.848Z,60.69
2019-03-11T15:03:23.495Z,59.77
2019-03-11T15:05:53.531Z,60.74
2019-03-11T15:08:22.903Z,59.58
2019-03-11T15:10:51.756Z,61.83
2019-03-11T15:13:20.734Z,62.00
2019-03-11T15:15:49.321Z,61.56
2019-03-11T15:18:18.201Z,58.06
2019-03-11T15:20:46.806Z,61.63
2019-03-11T15:23:20.705Z,58.23
2019-03-11T15:25:46.314Z,57.78
2019-03-11T15:28:14.911Z,56.98
2019-03-11T15:30:43.514Z,57.12
2019-03-11T15:33:12.288Z,58.63
2019-03-11T15:35:40.987Z,57.42
2019-03-11T15:38:09.803Z,57.28
2019-03-11T15:40:38.463Z,58.33
2019-03-11T15:43:07.372Z,60.63
2019-03-11T15:45:38.970Z,60.50
2019-03-11T15:48:06.549Z,59.24
2019-03-11T15:50:35.323Z,60.15
2019-03-11T15:53:03.966Z,65.27
2019-03-11T15:55:32.927Z,62.37
2019-03-11T15:58:01.525Z,61.94
2019-03-11T16:00:30.282Z,61.47
2019-03-11T16:02:59.278Z,59.54
2019-03-11T16:05:27.965Z,59.12
2019-03-11T16:07:56.834Z,58.10
2019-03-11T16:10:26.025Z,58.67
2019-03-11T16:12:54.687Z,61.32
2019-03-11T16:15:23.273Z,58.15
2019-03-11T16:17:51.935Z,58.67
2019-03-11T16:20:20.847Z,59.67
2019-03-11T16:22:49.666Z,59.47
2019-03-11T16:25:18.629Z,58.34
2019-03-11T16:27:47.385Z,57.78
2019-03-11T16:30:17.666Z,60.21
2019-03-11T16:32:58.175Z,61.00
2019-03-11T16:35:17.208Z,60.44
2019-03-11T16:37:46.040Z,62.46
2019-03-11T16:40:15.008Z,63.27
2019-03-11T16:42:43.580Z,61.25
2019-03-11T16:45:12.784Z,60.64
2019-03-11T16:47:41.672Z,61.95
2019-03-11T16:50:12.758Z,62.49
2019-03-11T16:52:41.417Z,64.36
2019-03-11T16:55:11.369Z,63.24
2019-03-11T16:57:40.054Z,63.27
2019-03-11T17:00:14.228Z,63.50
2019-03-11T17:02:42.890Z,62.54
2019-03-11T17:05:11.627Z,64.25
2019-03-11T17:07:40.381Z,65.52
2019-03-11T17:10:10.184Z,66.33
2019-03-11T17:12:38.825Z,65.07
2019-03-11T17:15:08.011Z,62.12
2019-03-11T17:17:36.794Z,64.86
2019-03-11T17:20:06.105Z,63.34
2019-03-11T17:22:35.375Z,63.35
2019-03-11T17:25:03.999Z,63.45
2019-03-11T17:27:32.864Z,66.51
2019-03-11T17:30:02.048Z,70.86
2019-03-11T17:32:30.664Z,68.93
2019-03-11T17:34:59.283Z,68.38
2019-03-11T17:37:29.627Z,66.49
2019-03-11T17:39:58.275Z,64.57
2019-03-11T17:42:27.431Z,64.07
2019-03-11T17:44:56.764Z,63.25
2019-03-11T17:47:26.066Z,67.11
2019-03-11T17:49:54.901Z,72.82
2019-03-11T17:52:24.639Z,70.49
2019-03-11T17:54:53.314Z,69.28
2019-03-11T17:57:21.984Z,69.07
2019-03-11T17:59:51.011Z,66.92
2019-03-11T18:02:19.623Z,71.54
2019-03-11T18:04:48.390Z,72.55
2019-03-11T18:07:17.126Z,67.71
2019-03-11T18:09:46.080Z,69.04
2019-03-11T18:12:14.664Z,66.03
2019-03-11T18:14:43.292Z,65.21
2019-03-11T18:17:12.399Z,63.49
2019-03-11T18:19:41.012Z,66.23
2019-03-11T18:22:09.592Z,66.27
2019-03-11T18:24:38.225Z,71.88
2019-03-11T18:27:06.955Z,68.50
2019-03-11T18:29:35.588Z,67.26
2019-03-11T18:32:04.506Z,66.11
2019-03-11T18:34:33.391Z,65.03
2019-03-11T18:37:01.978Z,63.85
2019-03-11T18:39:31.081Z,62.17
2019-03-11T18:42:00.043Z,62.90
2019-03-11T18:44:28.969Z,65.10
2019-03-11T18:46:58.137Z,64.39
2019-03-11T18:49:27.031Z,66.06
2019-03-11T18:51:55.737Z,66.68
2019-03-11T18:54:24.890Z,67.60
2019-03-11T18:56:53.672Z,66.62
2019-03-11T18:59:22.536Z,63.83
2019-03-11T19:01:51.495Z,69.61
2019-03-11T19:04:20.143Z,66.90
2019-03-11T19:06:48.844Z,67.75
2019-03-11T19:09:17.720Z,66.01
2019-03-11T19:11:46.320Z,68.57
2019-03-11T19:14:14.957Z,64.58
2019-03-11T19:16:44.109Z,67.04
2019-03-11T19:19:13.282Z,67.82
2019-03-11T19:21:41.962Z,67.84
2019-03-11T19:24:11.017Z,66.46
2019-03-11T19:26:40.696Z,64.83
2019-03-11T19:29:09.221Z,66.58
2019-03-11T19:31:38.442Z,63.55
2019-03-11T19:34:07.086Z,64.89
2019-03-11T19:36:35.827Z,65.34
2019-03-11T19:39:07.015Z,67.22
2019-03-11T19:41:35.703Z,62.67
2019-03-11T19:44:04.498Z,64.25
2019-03-11T19:46:34.845Z,65.93
2019-03-11T19:49:04.019Z,64.54
2019-03-11T19:51:33.055Z,67.17
2019-03-11T19:54:01.746Z,65.52
2019-03-11T19:56:30.419Z,67.63
2019-03-11T19:58:59.818Z,66.68
2019-03-11T20:01:28.535Z,67.82
2019-03-11T20:03:57.260Z,65.23
2019-03-11T20:06:25.932Z,63.01
2019-03-11T20:08:56.440Z,69.39
2019-03-11T20:11:25.373Z,66.65
2019-03-11T20:13:54.759Z,65.85
2019-03-11T20:16:26.160Z,66.28
2019-03-11T20:18:55.470Z,65.25
2019-03-11T20:21:24.248Z,65.73
2019-03-11T20:23:52.899Z,67.00
2019-03-11T20:26:22.672Z,64.45
2019-03-11T20:28:51.959Z,66.08
2019-03-11T20:31:21.063Z,64.69
2019-03-11T20:33:50.618Z,64.02
2019-03-11T20:36:21.104Z,61.49
2019-03-11T20:38:50.545Z,62.12
2019-03-11T20:41:19.132Z,62.96
2019-03-11T20:43:48.615Z,64.08
2019-03-11T20:46:17.488Z,64.44
2019-03-11T20:48:46.682Z,65.64
2019-03-11T20:51:15.918Z,65.15
2019-03-11T20:53:44.935Z,66.68
2019-03-11T20:56:13.925Z,66.14
2019-03-11T20:58:42.563Z,66.79
2019-03-11T21:01:11.237Z,66.46
2019-03-11T21:03:40.242Z,66.01
2019-03-11T21:06:09.360Z,65.76
2019-03-11T21:08:38.579Z,64.76
2019-03-11T21:11:07.605Z,66.73
2019-03-11T21:13:36.551Z,64.41
2019-03-11T21:16:05.435Z,65.21
2019-03-11T21:18:34.593Z,64.89
2019-03-11T21:21:05.312Z,64.23
2019-03-11T21:23:35.084Z,64.59
2019-03-11T21:26:04.598Z,64.66
2019-03-11T21:28:34.243Z,64.36
2019-03-11T21:31:03.975Z,62.62
2019-03-11T21:33:35.450Z,65.97
2019-03-11T21:36:04.575Z,66.98
2019-03-11T21:38:34.556Z,63.48
2019-03-11T21:41:03.524Z,64.51
2019-03-11T21:43:32.920Z,65.44
2019-03-11T21:46:01.950Z,64.93
2019-03-11T21:48:33.540Z,63.19
2019-03-11T21:51:02.264Z,60.88
2019-03-11T21:53:31.133Z,62.24
2019-03-11T21:56:00.054Z,62.80
2019-03-11T21:58:29.011Z,62.39
2019-03-11T22:00:57.855Z,63.56
2019-03-11T22:03:26.480Z,63.38
2019-03-11T22:05:55.125Z,62.97
2019-03-11T22:08:23.782Z,62.77
2019-03-11T22:10:52.370Z,63.24
2019-03-11T22:13:21.027Z,62.18
2019-03-11T22:15:49.641Z,62.83
2019-03-11T22:18:18.281Z,62.56
2019-03-11T22:20:47.411Z,63.62
2019-03-11T22:23:16.307Z,61.23
2019-03-11T22:25:44.909Z,62.88
2019-03-11T22:28:13.755Z,62.87
2019-03-11T22:30:42.436Z,61.68
2019-03-11T22:33:11.255Z,61.21
2019-03-11T22:35:40.033Z,62.65
2019-03-11T22:38:09.119Z,62.72
2019-03-11T22:40:38.084Z,63.43
2019-03-11T22:43:06.704Z,62.50
2019-03-11T22:45:35.639Z,61.90
2019-03-11T22:48:04.298Z,63.78
2019-03-11T22:50:32.918Z,65.98
2019-03-11T22:53:01.514Z,65.22
2019-03-11T22:55:30.125Z,64.24
2019-03-11T22:57:58.729Z,63.13
2019-03-11T23:00:53.783Z,63.58
2019-03-11T23:03:22.842Z,64.74
2019-03-11T23:05:57.779Z,62.61
2019-03-11T23:08:22.053Z,65.10
2019-03-11T23:10:51.250Z,60.74
2019-03-11T23:13:19.935Z,61.91
2019-03-11T23:15:48.554Z,61.64
2019-03-11T23:18:17.454Z,59.00
2019-03-11T23:20:46.554Z,61.36
2019-03-11T23:23:15.202Z,61.88
2019-03-11T23:25:43.876Z,65.57
2019-03-11T23:28:12.759Z,61.97
2019-03-11T23:30:41.485Z,59.22
2019-03-11T23:33:10.343Z,62.92
2019-03-11T23:35:39.162Z,62.05
2019-03-11T23:38:08.003Z,59.57
2019-03-11T23:40:37.009Z,62.51
2019-03-11T23:43:05.681Z,65.59
2019-03-11T23:45:34.622Z,61.26
2019-03-11T23:48:03.243Z,62.40
2019-03-11T23:50:31.937Z,64.21
2019-03-11T23:53:00.782Z,63.56
2019-03-11T23:55:29.414Z,60.45
2019-03-11T23:57:58.094Z,61.87
